createdAt,value
2018-09-15T00:01:18.434Z,13.40
2018-09-15T00:04:22.061Z,13.39
2018-09-15T00:07:25.808Z,13.46
2018-09-15T00:10:29.431Z,13.48
2018-09-15T00:13:33.096Z,13.45
2018-09-15T00:16:36.815Z,13.37
2018-09-15T00:19:40.478Z,13.38
2018-09-15T00:22:44.230Z,13.21
2018-09-15T00:25:47.900Z,13.24
2018-09-15T00:28:51.533Z,13.29
2018-09-15T00:31:55.277Z,13.17
2018-09-15T00:34:58.896Z,13.17
2018-09-15T00:38:02.599Z,13.18
2018-09-15T00:41:06.364Z,13.08
2018-09-15T00:44:10.021Z,13.15
2018-09-15T00:47:13.640Z,13.10
2018-09-15T00:50:17.300Z,13.11
2018-09-15T00:53:20.916Z,13.12
2018-09-15T00:56:24.479Z,13.18
2018-09-15T00:59:28.167Z,13.15
2018-09-15T01:02:31.801Z,13.08
2018-09-15T01:05:35.587Z,13.08
2018-09-15T01:08:39.214Z,12.96
2018-09-15T01:11:43.171Z,12.91
2018-09-15T01:14:46.834Z,12.81
2018-09-15T01:17:50.534Z,12.85
2018-09-15T01:20:54.207Z,12.78
2018-09-15T01:23:57.799Z,12.74
2018-09-15T01:27:01.464Z,12.69
2018-09-15T01:30:05.242Z,12.69
2018-09-15T01:33:09.006Z,12.78
2018-09-15T01:36:12.821Z,12.77
2018-09-15T01:39:16.454Z,12.75
2018-09-15T01:42:20.070Z,12.76
2018-09-15T01:45:23.955Z,12.71
2018-09-15T01:48:27.614Z,12.78
2018-09-15T01:51:31.354Z,12.89
2018-09-15T01:54:35.063Z,12.87
2018-09-15T01:57:38.852Z,12.89
2018-09-15T02:00:42.804Z,12.80
2018-09-15T02:03:46.630Z,12.77
2018-09-15T02:06:50.590Z,12.59
2018-09-15T02:09:54.227Z,12.48
2018-09-15T02:12:58.005Z,12.41
2018-09-15T02:16:01.734Z,12.33
2018-09-15T02:19:05.375Z,12.21
2018-09-15T02:22:09.056Z,12.19
2018-09-15T02:25:12.642Z,12.02
2018-09-15T02:28:16.219Z,12.01
2018-09-15T02:31:19.969Z,11.93
2018-09-15T02:34:23.629Z,11.84
2018-09-15T02:37:27.382Z,11.76
2018-09-15T02:40:31.032Z,11.82
2018-09-15T02:43:34.700Z,11.68
2018-09-15T02:46:38.376Z,11.59
2018-09-15T02:49:41.999Z,11.73
2018-09-15T02:52:45.692Z,11.58
2018-09-15T02:55:49.326Z,11.49
2018-09-15T02:58:52.935Z,11.53
2018-09-15T03:01:56.664Z,11.55
2018-09-15T03:05:00.342Z,11.63
2018-09-15T03:08:04.033Z,11.49
2018-09-15T03:11:07.771Z,11.52
2018-09-15T03:14:11.414Z,11.48
2018-09-15T03:17:15.126Z,11.62
2018-09-15T03:20:18.821Z,11.62
2018-09-15T03:23:22.500Z,11.57
2018-09-15T03:26:26.099Z,11.56
2018-09-15T03:29:29.871Z,11.58
2018-09-15T03:32:33.533Z,11.60
2018-09-15T03:35:37.171Z,11.64
2018-09-15T03:38:40.847Z,11.55
2018-09-15T03:41:44.625Z,11.39
2018-09-15T03:44:48.133Z,11.32
2018-09-15T03:47:51.856Z,11.24
2018-09-15T03:50:55.425Z,11.27
2018-09-15T03:53:59.237Z,11.25
2018-09-15T03:57:02.915Z,11.18
2018-09-15T04:00:06.856Z,11.33
2018-09-15T04:03:10.593Z,11.47
2018-09-15T04:06:14.446Z,11.44
2018-09-15T04:09:18.159Z,11.46
2018-09-15T04:12:21.849Z,11.47
2018-09-15T04:15:25.756Z,11.45
2018-09-15T04:18:29.509Z,11.37
2018-09-15T04:21:33.291Z,11.29
2018-09-15T04:24:37.103Z,11.30
2018-09-15T04:27:41.055Z,11.38
2018-09-15T04:30:44.841Z,11.60
2018-09-15T04:33:48.830Z,11.66
2018-09-15T04:36:52.529Z,11.75
2018-09-15T04:39:56.249Z,11.75
2018-09-15T04:43:00.155Z,11.82
2018-09-15T04:46:03.900Z,11.83
2018-09-15T04:49:07.528Z,11.75
2018-09-15T04:52:11.381Z,11.72
2018-09-15T04:55:15.138Z,11.70
2018-09-15T04:58:18.946Z,11.77
2018-09-15T05:01:22.589Z,11.75
2018-09-15T05:04:26.177Z,11.79
2018-09-15T05:07:29.870Z,11.85
2018-09-15T05:10:33.549Z,11.91
2018-09-15T05:13:37.321Z,11.92
2018-09-15T05:16:41.079Z,11.90
2018-09-15T05:19:44.742Z,11.83
2018-09-15T05:22:48.520Z,11.74
2018-09-15T05:25:52.115Z,11.71
2018-09-15T05:28:55.977Z,11.64
2018-09-15T05:31:59.821Z,11.63
2018-09-15T05:35:03.621Z,11.64
2018-09-15T05:38:07.236Z,11.93
2018-09-15T05:41:11.965Z,12.47
2018-09-15T05:44:15.622Z,12.85
2018-09-15T05:47:19.299Z,13.32
2018-09-15T05:50:23.040Z,13.24
2018-09-15T05:53:27.138Z,13.24
2018-09-15T05:56:30.989Z,13.12
2018-09-15T05:59:34.913Z,13.04
2018-09-15T06:02:38.745Z,12.71
2018-09-15T06:05:42.556Z,12.60
2018-09-15T06:08:46.310Z,12.50
2018-09-15T06:11:50.030Z,12.49
2018-09-15T06:14:53.724Z,12.50
2018-09-15T06:17:57.541Z,12.67
2018-09-15T06:21:01.211Z,13.53
2018-09-15T06:24:05.475Z,14.27
2018-09-15T06:27:09.275Z,14.74
2018-09-15T06:30:13.105Z,15.02
2018-09-15T06:33:16.825Z,14.65
2018-09-15T06:36:20.728Z,14.47
2018-09-15T06:39:24.310Z,14.17
2018-09-15T06:42:28.121Z,13.97
2018-09-15T06:45:31.805Z,13.97
2018-09-15T06:48:35.454Z,13.84
2018-09-15T06:51:39.419Z,14.44
2018-09-15T06:54:43.135Z,14.73
2018-09-15T06:57:49.382Z,15.01
2018-09-15T07:00:53.106Z,14.66
2018-09-15T07:03:56.909Z,14.15
2018-09-15T07:07:00.668Z,13.96
2018-09-15T07:10:04.280Z,14.43
2018-09-15T07:13:08.204Z,14.71
2018-09-15T07:16:11.825Z,14.85
2018-09-15T07:19:15.584Z,14.94
2018-09-15T07:22:19.295Z,15.01
2018-09-15T07:25:23.515Z,15.03
2018-09-15T07:28:28.581Z,15.11
2018-09-15T07:31:32.323Z,14.72
2018-09-15T07:34:36.077Z,14.63
2018-09-15T07:37:43.356Z,14.89
2018-09-15T07:40:49.507Z,15.13
2018-09-15T07:43:53.311Z,15.42
2018-09-15T07:46:57.015Z,15.62
2018-09-15T07:50:00.755Z,15.72
2018-09-15T07:53:06.895Z,15.44
2018-09-15T07:56:10.814Z,15.66
2018-09-15T07:59:18.908Z,15.54
2018-09-15T08:02:24.754Z,15.44
2018-09-15T08:05:28.544Z,15.30
2018-09-15T08:08:32.134Z,15.23
2018-09-15T08:11:35.901Z,15.32
2018-09-15T08:14:39.705Z,15.38
2018-09-15T08:17:43.586Z,15.48
2018-09-15T08:20:47.227Z,15.29
2018-09-15T08:23:51.071Z,15.14
2018-09-15T08:26:54.709Z,15.68
2018-09-15T08:29:58.421Z,16.03
2018-09-15T08:33:02.127Z,16.33
2018-09-15T08:36:05.995Z,16.54
2018-09-15T08:39:10.280Z,16.57
2018-09-15T08:42:14.107Z,17.13
2018-09-15T08:45:18.371Z,16.79
2018-09-15T08:48:22.133Z,17.16
2018-09-15T08:51:32.122Z,17.28
2018-09-15T08:54:35.836Z,17.06
2018-09-15T08:57:39.460Z,17.44
2018-09-15T09:00:43.192Z,17.39
2018-09-15T09:03:46.923Z,17.33
2018-09-15T09:06:50.623Z,17.31
2018-09-15T09:09:54.310Z,17.39
2018-09-15T09:12:58.067Z,17.50
2018-09-15T09:16:01.891Z,17.56
2018-09-15T09:19:05.691Z,17.58
2018-09-15T09:22:09.427Z,18.03
2018-09-15T09:25:13.162Z,18.03
2018-09-15T09:28:16.881Z,18.38
2018-09-15T09:31:20.689Z,18.56
2018-09-15T09:34:24.490Z,18.53
2018-09-15T09:37:28.205Z,17.93
2018-09-15T09:40:31.926Z,17.54
2018-09-15T09:43:35.631Z,17.64
2018-09-15T09:46:39.313Z,17.68
2018-09-15T09:49:42.965Z,17.64
2018-09-15T09:52:46.734Z,17.77
2018-09-15T09:55:50.882Z,18.00
2018-09-15T09:58:54.601Z,17.83
2018-09-15T10:02:01.415Z,17.98
2018-09-15T10:05:05.195Z,17.92
2018-09-15T10:08:08.815Z,17.95
2018-09-15T10:11:12.581Z,17.80
2018-09-15T10:14:16.365Z,17.87
2018-09-15T10:17:20.171Z,17.61
2018-09-15T10:20:23.873Z,18.40
2018-09-15T10:23:27.608Z,18.57
2018-09-15T10:26:31.439Z,18.21
2018-09-15T10:29:35.184Z,18.55
2018-09-15T10:32:38.840Z,18.70
2018-09-15T10:35:42.659Z,18.81
2018-09-15T10:38:46.450Z,18.97
2018-09-15T10:41:50.201Z,18.80
2018-09-15T10:44:53.856Z,18.86
2018-09-15T10:47:57.651Z,19.16
2018-09-15T10:51:01.306Z,19.07
2018-09-15T10:54:05.029Z,18.88
2018-09-15T10:57:08.794Z,19.21
2018-09-15T11:00:12.482Z,19.13
2018-09-15T11:03:16.189Z,18.76
2018-09-15T11:06:20.064Z,18.76
2018-09-15T11:09:23.779Z,19.02
2018-09-15T11:12:27.581Z,19.40
2018-09-15T11:15:31.352Z,19.58
2018-09-15T11:18:35.170Z,19.18
2018-09-15T11:21:38.839Z,18.72
2018-09-15T11:24:42.546Z,18.65
2018-09-15T11:27:46.357Z,18.41
2018-09-15T11:30:50.608Z,18.66
2018-09-15T11:33:54.266Z,18.77
2018-09-15T11:36:58.069Z,19.16
2018-09-15T11:40:01.809Z,19.44
2018-09-15T11:43:05.889Z,19.73
2018-09-15T11:46:09.604Z,19.63
2018-09-15T11:49:13.306Z,19.21
2018-09-15T11:52:17.158Z,19.31
2018-09-15T11:55:20.915Z,19.10
2018-09-15T11:58:24.710Z,19.11
2018-09-15T12:01:28.520Z,19.08
2018-09-15T12:04:32.466Z,18.99
2018-09-15T12:07:36.145Z,19.48
2018-09-15T12:10:39.819Z,19.30
2018-09-15T12:13:43.780Z,19.66
2018-09-15T12:16:47.510Z,19.80
2018-09-15T12:19:51.255Z,19.77
2018-09-15T12:22:54.944Z,19.59
2018-09-15T12:25:58.688Z,19.44
2018-09-15T12:29:02.483Z,19.29
2018-09-15T12:32:06.529Z,19.37
2018-09-15T12:35:10.244Z,19.62
2018-09-15T12:38:14.060Z,20.00
2018-09-15T12:41:18.126Z,19.52
2018-09-15T12:44:21.891Z,19.59
2018-09-15T12:47:25.558Z,19.37
2018-09-15T12:50:29.530Z,19.94
2018-09-15T12:53:33.226Z,20.11
2018-09-15T12:56:36.928Z,20.26
2018-09-15T12:59:40.671Z,19.80
2018-09-15T13:02:44.357Z,19.46
2018-09-15T13:05:48.285Z,19.11
2018-09-15T13:08:52.024Z,19.13
2018-09-15T13:11:55.711Z,18.69
2018-09-15T13:14:59.411Z,18.66
2018-09-15T13:18:03.147Z,18.08
2018-09-15T13:21:06.822Z,17.96
2018-09-15T13:24:10.460Z,18.13
2018-09-15T13:27:14.132Z,18.35
2018-09-15T13:30:18.129Z,18.56
2018-09-15T13:33:21.707Z,18.82
2018-09-15T13:36:25.655Z,19.26
2018-09-15T13:39:29.385Z,19.59
2018-09-15T13:42:33.156Z,19.55
2018-09-15T13:45:36.839Z,19.60
2018-09-15T13:48:40.652Z,19.47
2018-09-15T13:51:44.552Z,19.31
2018-09-15T13:54:48.226Z,18.86
2018-09-15T13:57:52.149Z,18.84
2018-09-15T14:00:55.908Z,18.83
2018-09-15T14:03:59.689Z,18.68
2018-09-15T14:07:04.755Z,18.82
2018-09-15T14:10:08.626Z,18.61
2018-09-15T14:13:12.380Z,18.76
2018-09-15T14:19:32.326Z,19.03
2018-09-15T14:22:36.066Z,18.94
2018-09-15T14:25:39.872Z,19.10
2018-09-15T14:28:44.301Z,18.93
2018-09-15T14:31:52.253Z,18.65
2018-09-15T14:34:55.910Z,18.53
2018-09-15T14:37:59.629Z,18.65
2018-09-15T14:41:03.544Z,18.78
2018-09-15T14:44:07.341Z,19.00
2018-09-15T14:47:10.980Z,19.12
2018-09-15T14:50:14.859Z,19.22
2018-09-15T14:53:18.611Z,19.29
2018-09-15T14:56:22.306Z,19.28
2018-09-15T14:59:26.673Z,19.20
2018-09-15T15:02:31.145Z,19.24
2018-09-15T15:05:34.881Z,19.59
2018-09-15T15:08:39.800Z,19.73
2018-09-15T15:11:44.300Z,19.90
2018-09-15T15:14:47.976Z,19.91
2018-09-15T15:17:52.838Z,19.81
2018-09-15T15:20:56.664Z,19.57
2018-09-15T15:24:00.350Z,19.33
2018-09-15T15:27:04.083Z,18.87
2018-09-15T15:30:08.158Z,18.80
2018-09-15T15:33:11.819Z,18.57
2018-09-15T15:36:15.688Z,18.47
2018-09-15T15:39:21.295Z,18.40
2018-09-15T15:42:24.989Z,18.35
2018-09-15T15:45:29.721Z,18.27
2018-09-15T15:48:35.008Z,18.22
2018-09-15T15:51:38.905Z,18.17
2018-09-15T15:54:42.734Z,18.10
2018-09-15T15:57:46.429Z,18.10
2018-09-15T16:00:50.415Z,18.08
2018-09-15T16:03:54.137Z,18.07
2018-09-15T16:06:57.943Z,17.98
2018-09-15T16:10:01.681Z,17.98
2018-09-15T16:13:05.529Z,17.87
2018-09-15T16:16:09.319Z,17.84
2018-09-15T16:19:13.893Z,17.85
2018-09-15T16:22:17.603Z,17.83
2018-09-15T16:25:21.243Z,17.80
2018-09-15T16:28:25.310Z,17.70
2018-09-15T16:31:29.140Z,17.64
2018-09-15T16:34:33.248Z,17.62
2018-09-15T16:37:37.049Z,17.58
2018-09-15T16:40:41.090Z,17.45
2018-09-15T16:43:44.945Z,17.34
2018-09-15T16:46:48.657Z,17.28
2018-09-15T16:49:52.379Z,17.30
2018-09-15T16:52:56.210Z,17.25
2018-09-15T16:55:59.853Z,17.19
2018-09-15T16:59:03.653Z,17.15
2018-09-15T17:02:07.405Z,17.06
2018-09-15T17:05:11.243Z,17.06
2018-09-15T17:08:14.998Z,17.02
2018-09-15T17:11:18.728Z,16.96
2018-09-15T17:14:22.566Z,16.85
2018-09-15T17:17:26.245Z,16.89
2018-09-15T17:20:29.991Z,16.85
2018-09-15T17:23:37.740Z,16.84
2018-09-15T17:26:41.638Z,16.79
2018-09-15T17:29:45.595Z,16.75
2018-09-15T17:32:49.599Z,16.67
2018-09-15T17:35:53.303Z,16.64
2018-09-15T17:38:57.029Z,16.64
2018-09-15T17:42:00.819Z,16.72
2018-09-15T17:45:04.693Z,16.62
2018-09-15T17:48:08.516Z,16.55
2018-09-15T17:51:15.989Z,16.50
2018-09-15T17:54:19.796Z,16.56
2018-09-15T17:57:23.480Z,16.52
2018-09-15T18:00:27.329Z,16.55
2018-09-15T18:03:31.032Z,16.51
2018-09-15T18:06:34.720Z,16.48
2018-09-15T18:09:38.468Z,16.56
2018-09-15T18:12:42.235Z,16.49
2018-09-15T18:15:45.982Z,16.47
2018-09-15T18:18:49.735Z,16.42
2018-09-15T18:21:53.634Z,16.31
2018-09-15T18:24:57.268Z,16.21
2018-09-15T18:28:00.929Z,16.03
2018-09-15T18:31:04.642Z,15.97
2018-09-15T18:34:08.472Z,15.96
2018-09-15T18:37:12.261Z,15.91
2018-09-15T18:40:16.309Z,15.96
2018-09-15T18:43:20.126Z,15.95
2018-09-15T18:46:23.948Z,15.80
2018-09-15T18:49:27.685Z,15.72
2018-09-15T18:52:31.538Z,15.63
2018-09-15T18:55:36.074Z,15.48
2018-09-15T18:58:40.310Z,15.40
2018-09-15T19:01:44.121Z,15.30
2018-09-15T19:04:47.916Z,15.18
2018-09-15T19:07:51.535Z,15.11
2018-09-15T19:10:55.383Z,15.06
2018-09-15T19:13:59.109Z,15.00
2018-09-15T19:17:02.957Z,14.96
2018-09-15T19:20:06.922Z,14.98
2018-09-15T19:23:10.525Z,15.03
2018-09-15T19:26:14.412Z,15.01
2018-09-15T19:29:18.072Z,14.97
2018-09-15T19:32:21.762Z,14.88
2018-09-15T19:35:25.690Z,14.79
2018-09-15T19:38:29.540Z,14.69
2018-09-15T19:41:33.338Z,14.91
2018-09-15T19:44:37.841Z,14.86
2018-09-15T19:47:41.481Z,14.69
2018-09-15T19:50:45.210Z,14.67
2018-09-15T19:53:48.944Z,14.56
2018-09-15T19:56:52.893Z,14.51
2018-09-15T19:59:56.680Z,14.51
2018-09-15T20:03:00.566Z,14.51
2018-09-15T20:06:04.352Z,14.58
2018-09-15T20:09:09.314Z,14.53
2018-09-15T20:12:13.136Z,14.59
2018-09-15T20:15:23.915Z,14.47
2018-09-15T20:18:26.291Z,14.40
2018-09-15T20:21:28.611Z,14.21
2018-09-15T20:24:32.447Z,14.19
2018-09-15T20:27:36.125Z,14.09
2018-09-15T20:30:39.966Z,14.04
2018-09-15T20:33:43.856Z,13.99
2018-09-15T20:36:47.589Z,13.97
2018-09-15T20:39:51.304Z,13.90
2018-09-15T20:42:55.101Z,13.93
2018-09-15T20:45:58.885Z,13.95
2018-09-15T20:49:02.658Z,13.90
2018-09-15T20:52:06.725Z,13.90
2018-09-15T20:55:10.463Z,13.94
2018-09-15T20:58:14.256Z,13.86
2018-09-15T21:01:17.955Z,13.85
2018-09-15T21:04:21.583Z,13.88
2018-09-15T21:07:25.305Z,13.91
2018-09-15T21:10:29.135Z,13.89
2018-09-15T21:13:32.801Z,13.93
2018-09-15T21:16:36.709Z,13.91
2018-09-15T21:19:40.485Z,13.80
2018-09-15T21:22:44.109Z,14.06
2018-09-15T21:25:47.875Z,13.94
2018-09-15T21:28:51.658Z,14.28
2018-09-15T21:31:55.423Z,14.17
2018-09-15T21:34:59.115Z,14.05
2018-09-15T21:38:02.716Z,13.92
2018-09-15T21:41:06.913Z,13.86
2018-09-15T21:44:10.621Z,13.78
2018-09-15T21:47:14.384Z,13.55
2018-09-15T21:50:18.013Z,13.37
2018-09-15T21:53:21.680Z,13.31
2018-09-15T21:56:25.384Z,13.30
2018-09-15T21:59:30.799Z,13.33
2018-09-15T22:02:34.780Z,13.32
2018-09-15T22:05:38.440Z,13.18
2018-09-15T22:08:42.099Z,13.05
2018-09-15T22:11:45.803Z,12.99
2018-09-15T22:14:49.496Z,12.89
2018-09-15T22:17:54.312Z,12.79
2018-09-15T22:20:58.030Z,12.73
2018-09-15T22:24:01.709Z,12.77
2018-09-15T22:27:05.575Z,12.73
2018-09-15T22:30:09.457Z,12.63
2018-09-15T22:33:13.235Z,12.62
2018-09-15T22:36:16.898Z,12.60
2018-09-15T22:39:20.610Z,12.56
2018-09-15T22:42:24.355Z,12.60
2018-09-15T22:45:28.947Z,12.60
2018-09-15T22:48:32.714Z,12.61
2018-09-15T22:51:36.445Z,12.61
2018-09-15T22:54:40.258Z,12.70
2018-09-15T22:57:43.928Z,12.69
2018-09-15T23:00:47.534Z,12.72
2018-09-15T23:03:53.910Z,12.67
2018-09-15T23:06:57.599Z,12.73
2018-09-15T23:10:01.202Z,12.70
2018-09-15T23:13:04.867Z,12.66
2018-09-15T23:16:08.559Z,12.66
2018-09-15T23:19:12.284Z,12.66
2018-09-15T23:22:15.869Z,12.58
2018-09-15T23:25:19.469Z,12.60
2018-09-15T23:28:23.216Z,12.59
2018-09-15T23:31:26.923Z,12.57
2018-09-15T23:34:30.517Z,12.55
2018-09-15T23:37:34.199Z,12.58
2018-09-15T23:40:37.882Z,12.60
2018-09-15T23:43:41.579Z,12.55
2018-09-15T23:46:45.228Z,12.59
2018-09-15T23:49:48.867Z,12.64
2018-09-15T23:52:52.578Z,12.62
2018-09-15T23:55:56.216Z,12.66
2018-09-15T23:59:00.062Z,12.77
